Terminal Aerodrome Forecast
Issued by NWS Bismarck, ND

Home | Current Version | Previous Version | Text Only | Print | Product List | Glossary On
Versions: 1 2 3 4 5 6 7 8 9 10 11 12 13 14 15 16 17 18 19 20 21 22 23
137
FTUS43 KBIS 121725
TAFISN
TAF
KISN 121725Z 1218/1318 25009KT P6SM SKC
     FM130100 29013G21KT P6SM SCT200 WS020/32045KT
     FM130600 30021G31KT P6SM FEW150
     FM131200 32021G30KT P6SM BKN035
     FM131500 32017G26KT P6SM BKN010=

USA.gov is the U.S. government's official web portal to all federal, state and local government web resources and services.